createdAt,value
2022-10-20T00:01:09.898Z,11.78
2022-10-20T00:03:36.738Z,11.56
2022-10-20T00:06:15.722Z,12.47
2022-10-20T00:08:43.077Z,11.75
2022-10-20T00:11:11.738Z,12.56
2022-10-20T00:13:39.404Z,12.72
2022-10-20T00:16:06.471Z,12.49
2022-10-20T00:18:33.712Z,11.06
2022-10-20T00:21:00.234Z,12.69
2022-10-20T00:23:26.728Z,12.83
2022-10-20T00:26:05.530Z,13.00
2022-10-20T00:28:32.230Z,12.16
2022-10-20T00:30:58.722Z,12.45
2022-10-20T00:33:25.903Z,12.39
2022-10-20T00:35:52.366Z,11.43
2022-10-20T00:40:50.150Z,12.75
2022-10-20T00:43:17.304Z,12.57
2022-10-20T00:45:49.963Z,12.93
2022-10-20T00:48:19.990Z,12.19
2022-10-20T00:50:52.693Z,11.71
2022-10-20T00:53:21.539Z,13.27
2022-10-20T00:55:50.828Z,12.32
2022-10-20T00:58:18.171Z,11.84
2022-10-20T01:00:48.298Z,12.87
2022-10-20T01:03:19.466Z,12.46
2022-10-20T01:05:45.872Z,12.95
2022-10-20T01:08:12.322Z,12.70
2022-10-20T01:11:06.274Z,12.99
2022-10-20T01:13:59.627Z,12.67
2022-10-20T01:16:59.075Z,12.93
2022-10-20T01:19:59.546Z,12.82
2022-10-20T01:22:37.602Z,11.80
2022-10-20T01:25:10.152Z,12.91
2022-10-20T01:27:44.646Z,12.53
2022-10-20T01:30:24.717Z,11.92
2022-10-20T01:33:18.801Z,12.89
2022-10-20T01:36:10.654Z,12.85
2022-10-20T01:38:43.801Z,10.45
2022-10-20T01:41:46.611Z,12.63
2022-10-20T01:44:16.845Z,12.98
2022-10-20T01:46:45.115Z,12.24
2022-10-20T01:49:17.687Z,12.88
2022-10-20T01:51:44.056Z,12.78
2022-10-20T01:54:25.918Z,12.86
2022-10-20T01:57:07.559Z,12.65
2022-10-20T02:00:10.316Z,12.96
2022-10-20T02:02:42.796Z,12.71
2022-10-20T02:05:37.928Z,12.56
2022-10-20T02:08:33.215Z,12.78
2022-10-20T02:11:03.002Z,12.33
2022-10-20T02:13:31.167Z,12.44
2022-10-20T02:16:01.146Z,11.53
2022-10-20T02:18:33.591Z,10.90
2022-10-20T02:21:02.773Z,12.68
2022-10-20T02:23:35.086Z,11.85
2022-10-20T02:26:12.618Z,12.39
2022-10-20T02:28:42.892Z,12.40
2022-10-20T02:31:09.829Z,12.57
2022-10-20T02:33:42.404Z,11.98
2022-10-20T02:36:15.641Z,11.88
2022-10-20T02:38:42.013Z,11.66
2022-10-20T02:41:08.391Z,11.63
2022-10-20T02:43:35.017Z,12.66
2022-10-20T02:46:01.555Z,12.34
2022-10-20T02:48:27.948Z,12.15
2022-10-20T02:50:54.370Z,12.30
2022-10-20T02:53:20.755Z,12.38
2022-10-20T02:55:47.205Z,12.47
2022-10-20T02:58:13.679Z,12.15
2022-10-20T03:00:40.161Z,12.31
2022-10-20T03:03:06.718Z,11.98
2022-10-20T03:05:33.240Z,11.36
2022-10-20T03:07:59.755Z,11.90
2022-10-20T03:10:26.267Z,11.69
2022-10-20T03:12:52.744Z,12.34
2022-10-20T03:15:19.171Z,12.60
2022-10-20T03:17:45.545Z,12.65
2022-10-20T03:20:11.895Z,11.42
2022-10-20T03:22:38.414Z,12.57
2022-10-20T03:25:05.260Z,12.65
2022-10-20T03:27:31.677Z,12.52
2022-10-20T03:29:58.230Z,12.22
2022-10-20T03:32:24.635Z,12.41
2022-10-20T03:34:51.128Z,11.89
2022-10-20T03:37:17.712Z,12.56
2022-10-20T03:39:44.090Z,12.59
2022-10-20T03:42:10.434Z,12.57
2022-10-20T03:44:36.872Z,12.09
2022-10-20T03:47:03.312Z,11.89
2022-10-20T03:49:33.361Z,9.37
2022-10-20T03:52:00.076Z,12.46
2022-10-20T03:54:26.672Z,12.15
2022-10-20T03:56:53.151Z,12.18
2022-10-20T03:59:19.727Z,12.27
2022-10-20T04:01:47.105Z,11.61
2022-10-20T04:04:14.172Z,12.15
2022-10-20T04:06:40.643Z,12.08
2022-10-20T04:09:07.137Z,11.75
2022-10-20T04:11:36.769Z,10.74
2022-10-20T04:14:09.564Z,11.56
2022-10-20T04:16:35.976Z,11.87
2022-10-20T04:19:02.405Z,11.30
2022-10-20T04:21:28.826Z,11.96
2022-10-20T04:23:55.192Z,11.25
2022-10-20T04:26:21.557Z,11.46
2022-10-20T04:29:14.245Z,11.29
2022-10-20T04:31:41.751Z,11.23
2022-10-20T04:34:29.826Z,11.82
2022-10-20T04:36:56.413Z,11.78
2022-10-20T04:39:51.288Z,11.75
2022-10-20T04:42:18.668Z,11.27
2022-10-20T04:44:55.501Z,10.90
2022-10-20T04:47:22.038Z,11.36
2022-10-20T04:49:48.522Z,11.13
2022-10-20T04:52:14.831Z,11.09
2022-10-20T04:54:42.441Z,10.70
2022-10-20T04:57:10.755Z,11.51
2022-10-20T04:59:37.456Z,11.63
2022-10-20T05:02:04.015Z,11.53
2022-10-20T05:04:31.280Z,11.30
2022-10-20T05:06:57.665Z,10.84
2022-10-20T05:09:24.055Z,11.53
2022-10-20T05:11:54.704Z,11.07
2022-10-20T05:14:21.308Z,11.36
2022-10-20T05:16:53.993Z,11.04
2022-10-20T05:19:20.564Z,11.23
2022-10-20T05:21:47.962Z,10.69
2022-10-20T05:24:19.847Z,10.93
2022-10-20T05:26:48.370Z,10.70
2022-10-20T05:29:14.795Z,11.15
2022-10-20T05:31:43.301Z,10.29
2022-10-20T05:34:11.081Z,10.12
2022-10-20T05:36:37.796Z,10.07
2022-10-20T05:39:04.367Z,9.77
2022-10-20T05:41:36.287Z,11.29
2022-10-20T05:44:07.079Z,10.45
2022-10-20T05:46:37.795Z,11.76
2022-10-20T05:49:04.272Z,10.45
2022-10-20T05:51:34.196Z,8.80
2022-10-20T05:54:01.965Z,10.75
2022-10-20T05:56:30.091Z,11.08
2022-10-20T05:58:57.993Z,10.65
2022-10-20T06:01:27.889Z,9.35
2022-10-20T06:03:56.932Z,10.57
2022-10-20T06:06:29.755Z,10.69
2022-10-20T06:08:58.753Z,11.16
2022-10-20T06:11:26.115Z,9.49
2022-10-20T06:13:55.834Z,11.04
2022-10-20T06:16:24.299Z,10.81
2022-10-20T06:18:51.000Z,11.44
2022-10-20T06:21:20.060Z,8.66
2022-10-20T06:23:46.568Z,10.88
2022-10-20T06:26:17.645Z,10.86
2022-10-20T06:28:45.006Z,9.75
2022-10-20T06:31:20.086Z,10.61
2022-10-20T06:33:47.187Z,11.17
2022-10-20T06:36:14.520Z,10.17
2022-10-20T06:38:41.670Z,11.33
2022-10-20T06:41:11.809Z,10.14
2022-10-20T06:43:38.554Z,9.50
2022-10-20T06:46:07.914Z,11.00
2022-10-20T06:48:35.481Z,9.63
2022-10-20T06:51:13.905Z,10.23
2022-10-20T06:53:44.311Z,11.53
2022-10-20T06:56:16.457Z,12.29
2022-10-20T06:58:44.804Z,12.01
2022-10-20T07:01:14.689Z,11.83
2022-10-20T07:03:45.048Z,12.65
2022-10-20T07:06:17.247Z,12.79
2022-10-20T07:08:43.937Z,12.93
2022-10-20T07:11:16.494Z,12.37
2022-10-20T07:13:43.601Z,12.57
2022-10-20T07:16:14.093Z,13.19
2022-10-20T07:18:41.418Z,11.22
2022-10-20T07:21:12.511Z,12.83
2022-10-20T07:23:38.975Z,12.28
2022-10-20T07:26:12.744Z,12.50
2022-10-20T07:28:42.604Z,10.66
2022-10-20T07:31:15.176Z,13.04
2022-10-20T07:33:41.615Z,11.76
2022-10-20T07:36:20.476Z,12.83
2022-10-20T07:38:48.090Z,12.30
2022-10-20T07:41:15.410Z,12.54
2022-10-20T07:43:42.318Z,13.61
2022-10-20T07:46:09.976Z,12.73
2022-10-20T07:48:36.741Z,13.38
2022-10-20T07:51:21.485Z,12.61
2022-10-20T07:53:48.787Z,13.19
2022-10-20T07:56:15.702Z,13.30
2022-10-20T07:58:43.173Z,13.79
2022-10-20T08:01:10.415Z,14.02
2022-10-20T08:03:37.280Z,12.80
2022-10-20T08:06:03.974Z,13.05
2022-10-20T08:08:30.585Z,13.13
2022-10-20T08:10:58.391Z,12.88
2022-10-20T08:13:26.355Z,14.14
2022-10-20T08:18:36.033Z,13.89
2022-10-20T08:21:07.181Z,13.82
2022-10-20T08:23:33.578Z,13.62
2022-10-20T08:25:59.900Z,13.83
2022-10-20T08:28:27.129Z,14.32
2022-10-20T08:30:53.785Z,14.42
2022-10-20T08:33:20.179Z,14.11
2022-10-20T08:35:46.591Z,13.71
2022-10-20T08:38:13.027Z,14.54
2022-10-20T08:40:42.631Z,14.84
2022-10-20T08:43:18.925Z,14.15
2022-10-20T08:45:45.891Z,14.27
2022-10-20T08:48:19.146Z,12.96
2022-10-20T08:50:48.944Z,14.73
2022-10-20T08:53:15.351Z,14.71
2022-10-20T08:55:44.189Z,14.81
2022-10-20T08:58:22.855Z,14.63
2022-10-20T09:00:56.077Z,14.49
2022-10-20T09:03:27.967Z,14.96
2022-10-20T09:06:01.816Z,15.42
2022-10-20T09:08:31.183Z,14.50
2022-10-20T09:10:57.766Z,15.16
2022-10-20T09:13:29.900Z,14.28
2022-10-20T09:16:22.059Z,14.11
2022-10-20T09:19:01.381Z,13.93
2022-10-20T09:21:31.647Z,15.54
2022-10-20T09:24:03.900Z,15.03
2022-10-20T09:26:57.935Z,15.41
2022-10-20T09:29:35.721Z,14.76
2022-10-20T09:32:15.354Z,15.87
2022-10-20T09:34:44.419Z,16.00
2022-10-20T09:37:14.452Z,15.63
2022-10-20T09:39:55.654Z,14.54
2022-10-20T09:42:30.347Z,16.80
2022-10-20T09:45:02.472Z,14.69
2022-10-20T09:47:29.069Z,16.06
2022-10-20T09:50:05.558Z,15.12
2022-10-20T09:52:38.106Z,16.19
2022-10-20T09:55:17.020Z,15.27
2022-10-20T09:57:47.642Z,16.69
2022-10-20T10:00:38.313Z,16.27
2022-10-20T10:03:11.027Z,15.50
2022-10-20T10:05:37.401Z,17.39
2022-10-20T10:08:03.842Z,15.48
2022-10-20T10:10:31.928Z,16.77
2022-10-20T10:13:01.173Z,17.03
2022-10-20T10:15:31.985Z,17.27
2022-10-20T10:17:59.739Z,16.23
2022-10-20T10:20:37.580Z,17.22
2022-10-20T10:23:26.548Z,18.13
2022-10-20T10:25:56.789Z,17.30
2022-10-20T10:28:39.140Z,14.88
2022-10-20T10:31:05.499Z,16.81
2022-10-20T10:33:33.177Z,17.53
2022-10-20T10:36:05.342Z,17.80
2022-10-20T10:38:31.589Z,18.43
2022-10-20T10:41:16.081Z,18.10
2022-10-20T10:44:00.766Z,18.02
2022-10-20T10:46:36.916Z,17.86
2022-10-20T10:49:22.183Z,17.68
2022-10-20T10:52:00.955Z,17.81
2022-10-20T10:55:14.382Z,17.60
2022-10-20T10:58:01.156Z,18.29
2022-10-20T11:00:33.606Z,16.32
2022-10-20T11:03:14.653Z,17.16
2022-10-20T11:05:59.122Z,17.60
2022-10-20T11:08:36.709Z,18.33
2022-10-20T11:11:18.831Z,18.19
2022-10-20T11:14:12.941Z,18.68
2022-10-20T11:16:54.127Z,18.57
2022-10-20T11:19:35.148Z,17.68
2022-10-20T11:22:27.933Z,18.16
2022-10-20T11:25:16.012Z,18.21
2022-10-20T11:27:42.620Z,18.77
2022-10-20T11:30:22.014Z,19.08
2022-10-20T11:33:17.062Z,18.67
2022-10-20T11:36:03.288Z,18.87
2022-10-20T11:38:51.122Z,17.28
2022-10-20T11:41:28.568Z,16.93
2022-10-20T11:44:36.486Z,18.54
2022-10-20T11:47:28.912Z,18.85
2022-10-20T11:49:55.368Z,18.86
2022-10-20T11:52:40.362Z,18.85
2022-10-20T11:55:49.591Z,19.95
2022-10-20T11:58:33.315Z,19.13
2022-10-20T12:01:09.012Z,19.04
2022-10-20T12:04:06.521Z,18.58
2022-10-20T12:06:51.726Z,19.14
2022-10-20T12:09:50.333Z,19.07
2022-10-20T12:12:32.431Z,19.70
2022-10-20T12:15:00.982Z,19.40
2022-10-20T12:17:42.483Z,20.36
2022-10-20T12:20:21.225Z,18.67
2022-10-20T12:22:58.950Z,19.55
2022-10-20T12:25:25.351Z,19.63
2022-10-20T12:28:19.695Z,19.76
2022-10-20T12:31:00.398Z,20.32
2022-10-20T12:33:40.891Z,20.56
2022-10-20T12:36:28.371Z,18.68
2022-10-20T12:39:13.488Z,19.75
2022-10-20T12:42:05.212Z,18.27
2022-10-20T12:44:42.056Z,19.76
2022-10-20T12:47:10.130Z,20.05
2022-10-20T12:49:40.392Z,19.34
2022-10-20T12:52:17.443Z,19.03
2022-10-20T12:54:48.456Z,20.10
2022-10-20T12:57:31.527Z,19.17
2022-10-20T12:59:58.119Z,19.96
2022-10-20T13:02:24.642Z,20.02
2022-10-20T13:05:14.073Z,19.91
2022-10-20T13:07:47.028Z,18.51
2022-10-20T13:10:32.675Z,19.25
2022-10-20T13:13:02.917Z,19.71
2022-10-20T13:15:31.902Z,17.24
2022-10-20T13:18:17.462Z,19.84
2022-10-20T13:20:50.199Z,19.13
2022-10-20T13:23:50.679Z,19.89
2022-10-20T13:26:45.372Z,17.98
2022-10-20T13:29:19.847Z,19.92
2022-10-20T13:32:05.110Z,19.00
2022-10-20T13:34:57.471Z,17.46
2022-10-20T13:37:45.786Z,18.30
2022-10-20T13:40:30.910Z,19.80
2022-10-20T13:43:23.678Z,18.76
2022-10-20T13:45:50.143Z,19.38
2022-10-20T13:48:52.700Z,19.27
2022-10-20T13:51:24.835Z,18.54
2022-10-20T13:53:56.621Z,16.32
2022-10-20T13:56:35.259Z,17.80
2022-10-20T13:59:19.451Z,18.43
2022-10-20T14:01:49.688Z,18.35
2022-10-20T14:04:25.588Z,16.26
2022-10-20T14:06:52.513Z,19.19
2022-10-20T14:09:22.315Z,17.86
2022-10-20T14:12:04.395Z,19.26
2022-10-20T14:14:32.232Z,18.54
2022-10-20T14:17:02.338Z,19.19
2022-10-20T14:19:31.148Z,18.11
2022-10-20T14:22:19.572Z,18.19
2022-10-20T14:24:48.647Z,17.96
2022-10-20T14:27:22.235Z,18.22
2022-10-20T14:29:51.628Z,18.43
2022-10-20T14:32:24.601Z,17.38
2022-10-20T14:35:23.667Z,18.95
2022-10-20T14:38:09.884Z,18.43
2022-10-20T14:40:38.116Z,16.17
2022-10-20T14:43:12.697Z,18.49
2022-10-20T14:45:52.842Z,18.29
2022-10-20T14:48:20.257Z,18.39
2022-10-20T14:50:46.938Z,18.48
2022-10-20T14:53:36.383Z,18.70
2022-10-20T14:56:03.286Z,18.34
2022-10-20T14:58:34.799Z,17.66
2022-10-20T15:01:35.200Z,18.19
2022-10-20T15:04:05.080Z,17.58
2022-10-20T15:06:32.248Z,18.74
2022-10-20T15:08:59.826Z,18.17
2022-10-20T15:11:28.236Z,18.60
2022-10-20T15:13:58.955Z,18.69
2022-10-20T15:16:47.328Z,17.84
2022-10-20T15:19:36.450Z,15.34
2022-10-20T15:24:39.496Z,17.55
2022-10-20T15:27:13.818Z,17.86
2022-10-20T15:29:48.078Z,17.57
2022-10-20T15:32:15.895Z,18.26
2022-10-20T15:34:43.138Z,17.70
2022-10-20T15:37:10.341Z,17.63
2022-10-20T15:39:48.643Z,17.72
2022-10-20T15:42:15.998Z,17.47
2022-10-20T15:44:49.819Z,17.04
2022-10-20T15:47:16.813Z,17.31
2022-10-20T15:49:45.345Z,17.42
2022-10-20T15:52:11.933Z,17.31
2022-10-20T15:55:25.472Z,16.84
2022-10-20T15:57:53.321Z,17.76
2022-10-20T16:00:22.093Z,18.41
2022-10-20T16:02:50.155Z,17.33
2022-10-20T16:05:18.940Z,16.90
2022-10-20T16:07:46.119Z,16.27
2022-10-20T16:10:14.223Z,17.02
2022-10-20T16:12:41.605Z,17.81
2022-10-20T16:15:09.843Z,18.15
2022-10-20T16:17:36.994Z,17.33
2022-10-20T16:20:07.938Z,15.81
2022-10-20T16:22:36.081Z,17.42
2022-10-20T16:25:10.693Z,17.54
2022-10-20T16:27:37.873Z,17.07
2022-10-20T16:30:05.977Z,17.05
2022-10-20T16:32:35.434Z,16.61
2022-10-20T16:35:06.366Z,17.12
2022-10-20T16:37:33.751Z,17.67
2022-10-20T16:40:08.313Z,17.29
2022-10-20T16:42:36.065Z,17.84
2022-10-20T16:45:03.023Z,16.85
2022-10-20T16:47:29.723Z,17.20
2022-10-20T16:49:58.231Z,16.82
2022-10-20T16:52:25.157Z,17.22
2022-10-20T16:54:51.925Z,17.34
2022-10-20T16:57:18.324Z,17.25
2022-10-20T16:59:50.482Z,16.85
2022-10-20T17:02:18.463Z,17.27
2022-10-20T17:04:54.161Z,17.62
2022-10-20T17:07:20.773Z,16.57
2022-10-20T17:10:23.016Z,17.16
2022-10-20T17:15:16.479Z,17.02
2022-10-20T17:17:43.758Z,17.13
2022-10-20T17:20:10.706Z,17.23
2022-10-20T17:22:37.472Z,16.56
2022-10-20T17:25:04.962Z,16.40
2022-10-20T17:27:31.753Z,16.88
2022-10-20T17:29:58.458Z,17.28
2022-10-20T17:32:25.308Z,16.93
2022-10-20T17:34:52.176Z,16.89
2022-10-20T17:37:19.455Z,16.22
2022-10-20T17:39:48.191Z,16.31
2022-10-20T17:42:16.042Z,16.74
2022-10-20T17:44:43.120Z,16.60
2022-10-20T17:47:09.716Z,16.36
2022-10-20T17:49:39.469Z,16.18
2022-10-20T17:52:06.401Z,17.61
2022-10-20T17:54:33.723Z,17.70
2022-10-20T17:57:00.902Z,16.93
2022-10-20T17:59:27.757Z,17.08
2022-10-20T18:01:55.851Z,17.01
2022-10-20T18:04:22.682Z,16.58
2022-10-20T18:06:50.114Z,17.49
2022-10-20T18:09:19.304Z,16.21
2022-10-20T18:11:50.027Z,16.73
2022-10-20T18:14:18.156Z,16.54
2022-10-20T18:16:47.308Z,17.06
2022-10-20T18:19:18.568Z,17.23
2022-10-20T18:21:45.891Z,17.43
2022-10-20T18:24:18.390Z,16.77
2022-10-20T18:26:48.832Z,15.98
2022-10-20T18:29:17.671Z,16.95
2022-10-20T18:31:46.683Z,17.13
2022-10-20T18:34:17.398Z,16.88
2022-10-20T18:36:45.951Z,17.34
2022-10-20T18:39:14.907Z,17.25
2022-10-20T18:41:44.645Z,16.78
2022-10-20T18:44:14.850Z,17.05
2022-10-20T18:46:42.643Z,17.26
2022-10-20T18:49:11.788Z,16.19
2022-10-20T18:51:39.254Z,17.12
2022-10-20T18:54:07.995Z,15.70
2022-10-20T18:56:36.340Z,16.61
2022-10-20T18:59:07.577Z,16.74
2022-10-20T19:01:37.374Z,15.66
2022-10-20T19:04:05.308Z,16.81
2022-10-20T19:06:43.543Z,16.99
2022-10-20T19:09:17.091Z,17.25
2022-10-20T19:11:45.397Z,16.55
2022-10-20T19:14:19.621Z,16.91
2022-10-20T19:16:49.107Z,17.33
2022-10-20T19:19:21.149Z,17.03
2022-10-20T19:21:49.397Z,16.57
2022-10-20T19:24:22.798Z,16.59
2022-10-20T19:27:26.010Z,17.14
2022-10-20T19:29:47.604Z,17.12
2022-10-20T19:32:14.609Z,17.11
2022-10-20T19:34:42.385Z,17.43
2022-10-20T19:37:10.700Z,16.76
2022-10-20T19:39:41.533Z,17.13
2022-10-20T19:42:09.653Z,15.96
2022-10-20T19:44:37.302Z,17.06
2022-10-20T19:47:05.226Z,17.05
2022-10-20T19:49:33.418Z,16.81
2022-10-20T19:52:00.040Z,17.37
2022-10-20T19:54:27.143Z,16.98
2022-10-20T19:56:55.536Z,17.43
2022-10-20T19:59:23.215Z,17.91
2022-10-20T20:01:52.869Z,17.03
2022-10-20T20:04:20.474Z,17.35
2022-10-20T20:06:47.024Z,16.53
2022-10-20T20:09:21.466Z,17.02
2022-10-20T20:11:49.174Z,17.30
2022-10-20T20:14:20.015Z,16.86
2022-10-20T20:16:47.804Z,17.07
2022-10-20T20:19:16.949Z,16.05
2022-10-20T20:21:46.607Z,16.98
2022-10-20T20:24:16.186Z,16.73
2022-10-20T20:26:45.774Z,17.31
2022-10-20T20:29:17.315Z,17.36
2022-10-20T20:31:46.697Z,17.04
2022-10-20T20:34:14.143Z,17.30
2022-10-20T20:36:42.317Z,16.57
2022-10-20T20:39:10.500Z,16.85
2022-10-20T20:41:37.032Z,16.96
2022-10-20T20:44:08.336Z,16.56
2022-10-20T20:46:39.219Z,16.99
2022-10-20T20:49:07.171Z,17.01
2022-10-20T20:51:34.649Z,16.96
2022-10-20T20:54:02.817Z,17.14
2022-10-20T20:56:32.176Z,16.90
2022-10-20T20:59:00.780Z,16.82
2022-10-20T21:01:32.147Z,16.27
2022-10-20T21:04:02.017Z,15.98
2022-10-20T21:06:33.672Z,16.29
2022-10-20T21:09:07.895Z,16.35
2022-10-20T21:11:37.424Z,16.28
2022-10-20T21:14:04.756Z,15.18
2022-10-20T21:16:34.294Z,13.85
2022-10-20T21:19:09.640Z,16.25
2022-10-20T21:21:40.240Z,15.46
2022-10-20T21:24:07.207Z,15.77
2022-10-20T21:26:35.478Z,16.68
2022-10-20T21:29:04.920Z,16.96
2022-10-20T21:31:31.867Z,16.85
2022-10-20T21:34:05.983Z,16.45
2022-10-20T21:36:35.476Z,16.57
2022-10-20T21:39:05.485Z,15.27
2022-10-20T21:41:35.354Z,15.88
2022-10-20T21:44:05.373Z,16.31
2022-10-20T21:46:41.104Z,16.65
2022-10-20T21:49:11.668Z,15.95
2022-10-20T21:51:45.582Z,15.77
2022-10-20T21:54:16.806Z,15.87
2022-10-20T21:56:47.365Z,16.32
2022-10-20T21:59:25.902Z,16.28
2022-10-20T22:01:56.577Z,15.95
2022-10-20T22:04:27.289Z,15.57
2022-10-20T22:06:55.428Z,16.27
2022-10-20T22:09:23.700Z,15.31
2022-10-20T22:11:55.477Z,16.35
2022-10-20T22:14:24.285Z,16.51
2022-10-20T22:16:55.638Z,15.64
2022-10-20T22:19:25.639Z,16.61
2022-10-20T22:21:54.052Z,16.54
2022-10-20T22:24:37.614Z,16.48
2022-10-20T22:27:11.387Z,16.52
2022-10-20T22:29:47.040Z,16.42
2022-10-20T22:32:28.185Z,15.97
2022-10-20T22:34:55.126Z,16.56
2022-10-20T22:37:22.080Z,15.57
2022-10-20T22:39:48.736Z,16.52
2022-10-20T22:42:52.898Z,16.57
2022-10-20T22:45:19.570Z,16.27
2022-10-20T22:47:46.391Z,16.56
2022-10-20T22:50:13.228Z,16.22
2022-10-20T22:52:47.313Z,16.49
2022-10-20T22:55:13.862Z,16.52
2022-10-20T23:00:28.628Z,16.66
2022-10-20T23:02:55.580Z,16.59
2022-10-20T23:05:22.908Z,16.95
2022-10-20T23:07:49.538Z,17.00
2022-10-20T23:10:16.421Z,15.49
2022-10-20T23:12:43.376Z,16.67
2022-10-20T23:15:10.382Z,16.63
2022-10-20T23:17:37.813Z,16.12
2022-10-20T23:20:05.955Z,16.45
2022-10-20T23:22:32.626Z,16.26
2022-10-20T23:25:02.250Z,16.21
2022-10-20T23:27:29.260Z,16.57
2022-10-20T23:29:57.250Z,17.04
2022-10-20T23:32:24.270Z,16.87
2022-10-20T23:34:51.194Z,16.74
2022-10-20T23:37:19.811Z,15.48
2022-10-20T23:39:46.596Z,16.35
2022-10-20T23:42:13.431Z,15.81
2022-10-20T23:44:40.190Z,16.68
2022-10-20T23:47:06.817Z,16.51
2022-10-20T23:49:33.649Z,16.50
2022-10-20T23:52:00.487Z,15.68
2022-10-20T23:54:27.296Z,16.39
2022-10-20T23:56:54.126Z,16.33
2022-10-20T23:59:21.025Z,15.58
